createdAt,value
2023-02-25T00:02:18.980Z,99188.78
2023-02-25T00:05:21.953Z,99187.78
2023-02-25T00:08:24.945Z,99178.00
2023-02-25T00:11:30.264Z,99175.34
2023-02-25T00:14:33.175Z,99173.53
2023-02-25T00:17:38.070Z,99168.09
2023-02-25T00:20:41.345Z,99169.78
2023-02-25T00:23:46.049Z,99175.84
2023-02-25T00:26:50.391Z,99169.66
2023-02-25T00:29:53.904Z,99167.72
2023-02-25T00:32:56.887Z,99173.06
2023-02-25T00:36:00.315Z,99162.41
2023-02-25T00:39:03.450Z,99159.75
2023-02-25T00:42:07.801Z,99164.94
2023-02-25T00:45:12.603Z,99157.81
2023-02-25T00:48:15.592Z,99157.06
2023-02-25T00:51:21.331Z,99159.63
2023-02-25T00:54:26.157Z,99153.47
2023-02-25T00:57:30.508Z,99148.97
2023-02-25T01:00:46.546Z,99151.53
2023-02-25T01:03:55.638Z,99144.50
2023-02-25T01:06:58.982Z,99147.88
2023-02-25T01:10:02.676Z,99131.91
2023-02-25T01:13:07.021Z,99133.59
2023-02-25T01:16:15.379Z,99138.94
2023-02-25T01:19:20.776Z,99137.09
2023-02-25T01:22:24.270Z,99133.59
2023-02-25T01:25:27.245Z,99140.63
2023-02-25T01:28:31.736Z,99129.97
2023-02-25T01:31:34.832Z,99132.63
2023-02-25T01:34:39.998Z,99131.69
2023-02-25T01:37:46.830Z,99126.34
2023-02-25T01:40:57.941Z,99129.97
2023-02-25T01:44:09.069Z,99127.16
2023-02-25T01:47:21.139Z,99122.69
2023-02-25T01:50:28.354Z,99124.41
2023-02-25T01:53:38.363Z,99128.88
2023-02-25T01:56:45.855Z,99135.06
2023-02-25T01:59:52.566Z,99132.41
2023-02-25T02:02:57.014Z,99124.41
2023-02-25T02:06:07.017Z,99130.56
2023-02-25T02:09:13.331Z,99133.34
2023-02-25T02:12:16.903Z,99128.88
2023-02-25T02:15:21.268Z,99129.75
2023-02-25T02:18:25.700Z,99128.03
2023-02-25T02:21:56.342Z,99131.53
2023-02-25T02:25:31.981Z,99137.72
2023-02-25T02:29:04.615Z,99135.06
2023-02-25T02:32:17.409Z,99130.56
2023-02-25T02:35:24.871Z,99131.41
2023-02-25T02:38:36.758Z,99130.56
2023-02-25T02:41:48.092Z,99140.25
2023-02-25T02:44:57.791Z,99141.22
2023-02-25T02:48:06.770Z,99142.06
2023-02-25T02:51:16.425Z,99154.53
2023-02-25T02:54:20.546Z,99146.53
2023-02-25T02:57:27.993Z,99162.44
2023-02-25T03:00:37.673Z,99162.53
2023-02-25T03:03:47.028Z,99172.38
2023-02-25T03:06:54.246Z,99167.03
2023-02-25T03:10:01.954Z,99172.38
2023-02-25T03:13:08.122Z,99178.50
2023-02-25T03:16:18.126Z,99190.03
2023-02-25T03:19:26.785Z,99189.06
2023-02-25T03:22:33.126Z,99190.03
2023-02-25T03:25:47.162Z,99196.22
2023-02-25T03:28:51.536Z,99200.69
2023-02-25T03:31:59.230Z,99214.00
2023-02-25T03:35:09.241Z,99209.66
2023-02-25T03:38:17.731Z,99215.00
2023-02-25T03:41:22.978Z,99227.31
2023-02-25T03:44:32.683Z,99229.25
2023-02-25T03:47:38.423Z,99230.97
2023-02-25T03:50:48.108Z,99234.47
2023-02-25T03:53:52.254Z,99228.31
2023-02-25T03:56:58.577Z,99233.63
2023-02-25T04:00:01.801Z,99231.78
2023-02-25T04:03:05.916Z,99238.84
2023-02-25T04:06:12.019Z,99242.34
2023-02-25T04:09:15.084Z,99245.03
2023-02-25T04:12:18.562Z,99253.00
2023-02-25T04:15:21.834Z,99258.34
2023-02-25T04:18:26.660Z,99262.69
2023-02-25T04:21:33.497Z,99264.53
2023-02-25T04:24:36.489Z,99271.53
2023-02-25T04:27:40.075Z,99276.00
2023-02-25T04:30:43.100Z,99284.00
2023-02-25T04:33:49.315Z,99285.72
2023-02-25T04:36:53.836Z,99295.38
2023-02-25T04:39:56.881Z,99291.03
2023-02-25T04:42:59.913Z,99290.91
2023-02-25T04:46:03.017Z,99291.78
2023-02-25T04:49:06.645Z,99299.78
2023-02-25T04:52:11.037Z,99305.09
2023-02-25T04:55:14.026Z,99314.78
2023-02-25T04:58:17.036Z,99311.28
2023-02-25T05:01:20.062Z,99313.94
2023-02-25T05:04:23.118Z,99327.28
2023-02-25T05:07:27.562Z,99331.75
2023-02-25T05:10:30.494Z,99341.53
2023-02-25T05:13:34.061Z,99335.34
2023-02-25T05:16:37.163Z,99342.41
2023-02-25T05:19:40.102Z,99342.41
2023-02-25T05:22:44.861Z,99346.88
2023-02-25T05:25:47.834Z,99358.38
2023-02-25T05:28:51.419Z,99354.00
2023-02-25T05:31:55.141Z,99346.00
2023-02-25T05:34:58.632Z,99350.50
2023-02-25T05:38:02.966Z,99362.00
2023-02-25T05:41:07.190Z,99358.59
2023-02-25T05:44:11.474Z,99365.66
2023-02-25T05:47:15.409Z,99379.91
2023-02-25T05:50:18.374Z,99378.22
2023-02-25T05:53:22.681Z,99383.56
2023-02-25T05:56:30.244Z,99395.06
2023-02-25T05:59:36.628Z,99399.53
2023-02-25T06:02:39.664Z,99397.75
2023-02-25T06:05:43.353Z,99415.41
2023-02-25T06:08:49.406Z,99410.94
2023-02-25T06:11:52.355Z,99418.19
2023-02-25T06:14:55.531Z,99429.72
2023-02-25T06:17:58.534Z,99423.53
2023-02-25T06:21:05.428Z,99434.19
2023-02-25T06:24:11.409Z,99442.16
2023-02-25T06:27:14.993Z,99447.50
2023-02-25T06:30:18.581Z,99462.50
2023-02-25T06:33:21.730Z,99464.34
2023-02-25T06:36:25.195Z,99475.81
2023-02-25T06:39:29.745Z,99477.53
2023-02-25T06:42:32.824Z,99481.06
2023-02-25T06:45:37.066Z,99495.22
2023-02-25T06:48:40.499Z,99496.94
2023-02-25T06:51:43.457Z,99495.22
2023-02-25T06:54:47.861Z,99492.56
2023-02-25T06:57:50.873Z,99512.06
2023-02-25T07:00:54.050Z,99511.13
2023-02-25T07:03:57.083Z,99514.59
2023-02-25T07:07:00.198Z,99519.19
2023-02-25T07:10:04.776Z,99528.06
2023-02-25T07:13:08.190Z,99533.50
2023-02-25T07:16:11.480Z,99541.50
2023-02-25T07:19:16.534Z,99549.47
2023-02-25T07:22:20.463Z,99553.09
2023-02-25T07:25:25.660Z,99566.41
2023-02-25T07:28:28.695Z,99573.47
2023-02-25T07:31:31.951Z,99573.47
2023-02-25T07:34:35.009Z,99586.66
2023-02-25T07:37:38.661Z,99585.81
2023-02-25T07:40:43.074Z,99593.81
2023-02-25T07:43:46.645Z,99600.97
2023-02-25T07:46:49.670Z,99607.97
2023-02-25T07:49:52.737Z,99619.50
2023-02-25T07:52:55.780Z,99621.19
2023-02-25T07:56:00.305Z,99631.09
2023-02-25T07:59:03.309Z,99639.97
2023-02-25T08:02:10.262Z,99634.75
2023-02-25T08:05:13.677Z,99648.06
2023-02-25T08:08:16.744Z,99641.88
2023-02-25T08:11:23.216Z,99665.75
2023-02-25T08:14:26.389Z,99665.66
2023-02-25T08:17:32.486Z,99664.81
2023-02-25T08:20:35.546Z,99663.81
2023-02-25T08:23:38.998Z,99668.31
2023-02-25T08:26:44.582Z,99679.06
2023-02-25T08:29:47.627Z,99680.03
2023-02-25T08:32:50.845Z,99685.56
2023-02-25T08:35:53.913Z,99688.34
2023-02-25T08:38:58.422Z,99703.47
2023-02-25T08:42:02.800Z,99707.94
2023-02-25T08:45:06.741Z,99708.91
2023-02-25T08:48:09.860Z,99719.56
2023-02-25T08:51:14.907Z,99725.75
2023-02-25T08:54:18.189Z,99739.09
2023-02-25T08:57:22.592Z,99727.56
2023-02-25T09:00:25.900Z,99738.22
2023-02-25T09:03:29.151Z,99738.22
2023-02-25T09:06:33.982Z,99745.34
2023-02-25T09:09:37.073Z,99764.75
2023-02-25T09:12:43.078Z,99760.41
2023-02-25T09:15:46.105Z,99769.13
2023-02-25T09:18:51.344Z,99788.53
2023-02-25T09:21:54.369Z,99787.56
2023-02-25T09:24:57.426Z,99787.50
2023-02-25T09:28:02.019Z,99793.44
2023-02-25T09:31:05.520Z,99792.59
2023-02-25T09:34:10.369Z,99804.13
2023-02-25T09:37:14.883Z,99817.56
2023-02-25T09:40:22.794Z,99824.63
2023-02-25T09:43:31.241Z,99821.44
2023-02-25T09:46:41.325Z,99828.66
2023-02-25T09:49:49.715Z,99849.97
2023-02-25T09:53:02.403Z,99843.38
2023-02-25T09:56:07.614Z,99850.88
2023-02-25T09:59:16.433Z,99846.66
2023-02-25T10:02:33.967Z,99855.00
2023-02-25T10:05:44.241Z,99858.00
2023-02-25T10:08:54.914Z,99874.16
2023-02-25T10:12:05.520Z,99882.50
2023-02-25T10:15:28.740Z,99886.28
2023-02-25T10:18:46.198Z,99891.00
2023-02-25T10:22:14.608Z,99904.59
2023-02-25T10:25:21.405Z,99895.31
2023-02-25T10:28:25.472Z,99905.53
2023-02-25T10:31:32.555Z,99916.88
2023-02-25T10:34:39.204Z,99917.63
2023-02-25T10:37:42.213Z,99920.38
2023-02-25T10:40:45.193Z,99928.38
2023-02-25T10:43:48.249Z,99924.97
2023-02-25T10:46:56.664Z,99937.56
2023-02-25T10:50:15.281Z,99940.44
2023-02-25T10:53:19.925Z,99943.31
2023-02-25T10:56:23.792Z,99962.72
2023-02-25T10:59:33.435Z,99956.63
2023-02-25T11:02:42.652Z,99971.78
2023-02-25T11:05:45.789Z,99969.09
2023-02-25T11:08:48.904Z,99978.09
2023-02-25T11:11:55.386Z,99974.56
2023-02-25T11:14:58.416Z,99982.75
2023-02-25T11:18:07.999Z,99990.84
2023-02-25T11:21:14.457Z,99997.22
2023-02-25T11:24:20.629Z,99989.47
2023-02-25T11:27:33.322Z,100000.31
2023-02-25T11:30:40.128Z,100004.13
2023-02-25T11:33:50.783Z,100004.31
2023-02-25T11:36:54.251Z,100014.22
2023-02-25T11:39:57.585Z,100025.09
2023-02-25T11:43:17.163Z,100028.72
2023-02-25T11:46:24.123Z,100034.25
2023-02-25T11:49:37.817Z,100043.19
2023-02-25T11:52:45.563Z,100039.78
2023-02-25T11:56:02.088Z,100051.47
2023-02-25T11:59:22.229Z,100051.59
2023-02-25T12:02:33.914Z,100052.56
2023-02-25T12:05:56.157Z,100072.97
2023-02-25T12:09:31.720Z,100073.06
2023-02-25T12:13:13.736Z,100074.03
2023-02-25T12:16:55.762Z,100078.59
2023-02-25T12:20:31.237Z,100082.97
2023-02-25T12:24:12.342Z,100088.28
2023-02-25T12:27:43.390Z,100088.28
2023-02-25T12:31:32.835Z,100101.59
2023-02-25T12:35:07.189Z,100103.50
2023-02-25T12:39:06.986Z,100112.38
2023-02-25T12:42:28.725Z,100115.16
2023-02-25T12:45:48.555Z,100113.41
2023-02-25T12:49:12.144Z,100120.59
2023-02-25T12:52:35.323Z,100122.38
2023-02-25T12:56:30.686Z,100122.38
2023-02-25T12:59:49.726Z,100129.50
2023-02-25T13:03:07.815Z,100143.69
2023-02-25T13:06:43.075Z,100150.72
2023-02-25T13:10:02.224Z,100157.88
2023-02-25T13:13:25.273Z,100159.69
2023-02-25T13:16:50.598Z,100168.53
2023-02-25T13:20:20.890Z,100167.69
2023-02-25T13:23:47.520Z,100173.94
2023-02-25T13:27:00.590Z,100180.25
2023-02-25T13:30:31.053Z,100183.78
2023-02-25T13:34:03.667Z,100191.84
2023-02-25T13:37:35.426Z,100199.94
2023-02-25T13:40:51.022Z,100198.13
2023-02-25T13:44:18.262Z,100208.78
2023-02-25T13:47:46.702Z,100200.81
2023-02-25T13:51:11.510Z,100210.59
2023-02-25T13:54:41.386Z,100215.94
2023-02-25T13:58:01.715Z,100228.38
2023-02-25T14:01:23.819Z,100231.06
2023-02-25T14:05:05.448Z,100238.28
2023-02-25T14:08:25.809Z,100248.06
2023-02-25T14:11:44.674Z,100247.25
2023-02-25T14:15:09.334Z,100254.38
2023-02-25T14:18:45.573Z,100260.63
2023-02-25T14:22:04.902Z,100264.16
2023-02-25T14:25:21.733Z,100275.78
2023-02-25T14:28:51.140Z,100276.63
2023-02-25T14:32:25.499Z,100282.81
2023-02-25T14:35:46.591Z,100294.34
2023-02-25T14:39:07.767Z,100302.34
2023-02-25T14:42:29.348Z,100310.31
2023-02-25T14:45:38.976Z,100318.31
2023-02-25T14:48:48.537Z,100320.13
2023-02-25T14:52:21.865Z,100327.34
2023-02-25T14:55:42.094Z,100334.41
2023-02-25T14:59:14.343Z,100337.06
2023-02-25T15:02:45.283Z,100340.56
2023-02-25T15:06:14.644Z,100357.41
2023-02-25T15:09:34.624Z,100356.50
2023-02-25T15:12:57.124Z,100358.28
2023-02-25T15:16:25.179Z,100362.66
2023-02-25T15:19:58.369Z,100374.28
2023-02-25T15:23:11.814Z,100374.28
2023-02-25T15:26:24.735Z,100380.47
2023-02-25T15:29:51.641Z,100389.25
2023-02-25T15:33:07.625Z,100394.56
2023-02-25T15:36:28.841Z,100398.16
2023-02-25T15:39:50.991Z,100407.13
2023-02-25T15:42:55.914Z,100409.78
2023-02-25T15:46:38.721Z,100411.50
2023-02-25T15:49:47.286Z,100419.47
2023-02-25T15:52:56.561Z,100419.47
2023-02-25T15:56:29.372Z,100434.59
2023-02-25T15:59:47.002Z,100435.47
2023-02-25T16:02:54.425Z,100441.66
2023-02-25T16:06:02.642Z,100455.09
2023-02-25T16:09:09.085Z,100460.41
2023-02-25T16:12:15.506Z,100464.00
2023-02-25T16:15:27.215Z,100470.22
2023-02-25T16:18:35.356Z,100477.34
2023-02-25T16:21:44.202Z,100486.19
2023-02-25T16:24:50.568Z,100495.97
2023-02-25T16:28:02.464Z,100499.63
2023-02-25T16:31:12.512Z,100505.78
2023-02-25T16:34:22.826Z,100519.03
2023-02-25T16:37:37.226Z,100514.53
2023-02-25T16:40:42.644Z,100525.22
2023-02-25T16:43:46.798Z,100531.41
2023-02-25T16:46:52.551Z,100540.34
2023-02-25T16:49:57.811Z,100543.94
2023-02-25T16:53:04.938Z,100551.94
2023-02-25T16:56:20.060Z,100559.06
2023-02-25T16:59:24.503Z,100559.06
2023-02-25T17:02:27.490Z,100575.94
2023-02-25T17:05:33.437Z,100577.66
2023-02-25T17:08:39.743Z,100580.34
2023-02-25T17:11:55.737Z,100588.31
2023-02-25T17:15:00.840Z,100588.47
2023-02-25T17:18:09.995Z,100598.28
2023-02-25T17:21:20.777Z,100603.69
2023-02-25T17:24:28.587Z,100609.94
2023-02-25T17:27:31.915Z,100614.44
2023-02-25T17:30:37.756Z,100620.59
2023-02-25T17:33:49.264Z,100625.09
2023-02-25T17:36:53.295Z,100621.47
2023-02-25T17:39:58.482Z,100629.41
2023-02-25T17:43:23.607Z,100633.69
2023-02-25T17:46:36.255Z,100641.53
2023-02-25T17:49:40.089Z,100647.63
2023-02-25T17:52:49.243Z,100639.50
2023-02-25T17:55:53.893Z,100641.09
2023-02-25T17:59:01.557Z,100649.03
2023-02-25T18:02:25.014Z,100653.41
2023-02-25T18:05:28.428Z,100651.63
2023-02-25T18:08:31.860Z,100659.63
2023-02-25T18:11:38.774Z,100662.28
2023-02-25T18:14:45.728Z,100663.22
2023-02-25T18:17:50.631Z,100663.28
2023-02-25T18:20:59.624Z,100675.75
2023-02-25T18:24:02.890Z,100668.72
2023-02-25T18:27:30.274Z,100679.38
2023-02-25T18:30:34.209Z,100682.97
2023-02-25T18:33:37.544Z,100691.94
2023-02-25T18:36:40.636Z,100692.84
2023-02-25T18:39:43.920Z,100697.31
2023-02-25T18:42:48.338Z,100705.41
2023-02-25T18:45:51.369Z,100705.41
2023-02-25T18:48:54.437Z,100710.72
2023-02-25T18:51:57.534Z,100717.03
2023-02-25T18:55:00.498Z,100723.28
2023-02-25T18:58:05.005Z,100735.72
2023-02-25T19:01:08.487Z,100733.06
2023-02-25T19:04:17.341Z,100734.94
2023-02-25T19:07:20.400Z,100741.16
2023-02-25T19:10:26.063Z,100743.03
2023-02-25T19:13:34.591Z,100743.03
2023-02-25T19:16:38.092Z,100752.00
2023-02-25T19:19:41.074Z,100752.81
2023-02-25T19:22:44.506Z,100749.31
2023-02-25T19:25:50.566Z,100757.31
2023-02-25T19:28:55.417Z,100755.50
2023-02-25T19:31:58.535Z,100767.97
2023-02-25T19:35:04.382Z,100765.31
2023-02-25T19:38:09.246Z,100773.31
2023-02-25T19:41:14.181Z,100771.56
2023-02-25T19:44:18.739Z,100778.63
2023-02-25T19:47:22.134Z,100789.31
2023-02-25T19:50:27.016Z,100794.63
2023-02-25T19:53:30.028Z,100794.63
2023-02-25T19:56:33.091Z,100807.00
2023-02-25T19:59:37.510Z,100807.00
2023-02-25T20:02:40.927Z,100813.19
2023-02-25T20:05:44.736Z,100819.41
2023-02-25T20:08:52.452Z,100823.78
2023-02-25T20:11:55.481Z,100829.09
2023-02-25T20:14:59.905Z,100833.50
2023-02-25T20:18:02.852Z,100842.34
2023-02-25T20:21:06.291Z,100835.31
2023-02-25T20:24:09.702Z,100838.84
2023-02-25T20:27:12.896Z,100844.16
2023-02-25T20:30:18.755Z,100846.81
2023-02-25T20:33:22.450Z,100853.97
2023-02-25T20:36:28.189Z,100867.19
2023-02-25T20:39:48.049Z,100859.19
2023-02-25T20:42:51.232Z,100863.66
2023-02-25T20:45:56.107Z,100872.53
2023-02-25T20:48:59.318Z,100871.66
2023-02-25T20:52:02.745Z,100878.72
2023-02-25T20:55:06.930Z,100882.31
2023-02-25T20:58:10.894Z,100888.50
2023-02-25T21:01:15.462Z,100885.94
2023-02-25T21:04:18.494Z,100895.63
2023-02-25T21:07:21.791Z,100894.81
2023-02-25T21:10:24.945Z,100894.81
2023-02-25T21:13:28.190Z,100901.06
2023-02-25T21:16:32.691Z,100904.69
2023-02-25T21:19:36.220Z,100917.03
2023-02-25T21:22:39.285Z,100918.00
2023-02-25T21:25:42.293Z,100925.13
2023-02-25T21:28:46.389Z,100926.00
2023-02-25T21:31:50.861Z,100933.13
2023-02-25T21:34:53.903Z,100940.16
2023-02-25T21:37:56.946Z,100937.59
2023-02-25T21:41:06.518Z,100943.03
2023-02-25T21:44:09.795Z,100945.88
2023-02-25T21:47:14.497Z,100951.34
2023-02-25T21:50:18.138Z,100952.28
2023-02-25T21:53:23.405Z,100956.66
2023-02-25T21:56:27.366Z,100961.06
2023-02-25T21:59:30.505Z,100966.25
2023-02-25T22:02:36.212Z,100966.03
2023-02-25T22:05:39.664Z,100959.69
2023-02-25T22:08:44.669Z,100974.50
2023-02-25T22:11:47.711Z,100963.63
2023-02-25T22:14:50.743Z,100973.97
2023-02-25T22:17:56.060Z,100967.63
2023-02-25T22:21:10.793Z,100975.38
2023-02-25T22:24:13.859Z,100981.44
2023-02-25T22:27:16.925Z,100981.28
2023-02-25T22:30:20.761Z,100989.22
2023-02-25T22:33:25.278Z,100984.72
2023-02-25T22:36:28.446Z,100988.34
2023-02-25T22:39:31.478Z,100994.56
2023-02-25T22:42:34.526Z,100998.22
2023-02-25T22:45:37.535Z,101000.03
2023-02-25T22:48:44.099Z,101001.03
2023-02-25T22:51:48.172Z,101009.19
2023-02-25T22:54:51.197Z,101019.91
2023-02-25T22:57:54.142Z,101026.28
2023-02-25T23:00:57.122Z,101020.19
2023-02-25T23:04:01.830Z,101028.25
2023-02-25T23:07:05.084Z,101032.78
2023-02-25T23:10:09.494Z,101037.34
2023-02-25T23:13:12.862Z,101033.88
2023-02-25T23:16:17.227Z,101042.81
2023-02-25T23:19:21.730Z,101047.34
2023-02-25T23:22:27.061Z,101056.28
2023-02-25T23:25:30.908Z,101051.88
2023-02-25T23:28:33.986Z,101059.00
2023-02-25T23:31:38.611Z,101062.72
2023-02-25T23:34:42.969Z,101065.41
2023-02-25T23:37:47.049Z,101069.91
2023-02-25T23:40:50.249Z,101071.63
2023-02-25T23:43:53.879Z,101081.41
2023-02-25T23:46:57.035Z,101081.50
2023-02-25T23:50:01.493Z,101087.78
2023-02-25T23:53:04.428Z,101096.69
2023-02-25T23:56:10.128Z,101086.03
2023-02-25T23:59:13.648Z,101097.63
